Current Weather

Aurora Muni

Aurora, Illinois (KARR)

Report from: Friday, February 3, 2023 11:52 PM CST
Current time: Saturday, February 4, 2023 12:32 AM CST

Nearby weather
Weather history
Weather forecast

Temperature-13.9°C (7.0°F)
Wind chill-20.3°C (-4.6°F)
Dew point-19.4°C (-2.9°F)
Winds 6 kts (3.1 m/s, 6.9 mph) Southeast (130°)
Visibility10 mi. (16.1 km)
Clouds Ceiling: Overcast 4,500 ft. (1,372 m)
Altimeter30.45 in.Hg (1031 mB)
Relative humidity63 %
Density altitude-4,236 ft. (-1,291 m)
Sea-level pressure103.3 kPa (1033 mB, 30.51 in.Hg)
Max temp last 6 hours-13.9°C (7.0°F)
Min temp last 6 hours-17.2°C (1.0°F)
Max temp last 24 hours-13.9°C (7.0°F)
Min temp last 24 hours-21.1°C (-6.0°F)
Remarks Fully automated report
Automated weather observing station with precipitation discriminator
Pressure falling more slowly
Flight conditions Visual Meteorological Conditions
Raw dataKARR 040552Z AUTO 13006KT 10SM OVC045 M14/M19 A3045 RMK AO2 SLP331 T11391194 11139 21172 411391211 56013
An unhandled exception has occurred. See browser dev tools for details. Reload 🗙